createdAt,value
2022-11-30T00:07:48.993Z,90.89
2022-11-30T00:22:52.290Z,90.89
2022-11-30T00:37:55.476Z,91.09
2022-11-30T00:52:58.820Z,90.87
2022-11-30T01:08:07.636Z,91.14
2022-11-30T01:23:11.632Z,91.01
2022-11-30T01:38:14.758Z,91.01
2022-11-30T01:53:18.464Z,90.72
2022-11-30T02:08:22.932Z,90.62
2022-11-30T02:24:01.670Z,90.91
2022-11-30T02:39:06.066Z,90.66
2022-11-30T02:54:12.044Z,90.53
2022-11-30T03:09:15.610Z,90.31
2022-11-30T03:24:18.825Z,90.10
2022-11-30T03:39:22.089Z,89.44
2022-11-30T03:54:25.484Z,89.38
2022-11-30T04:09:29.094Z,89.46
2022-11-30T04:24:32.235Z,89.23
2022-11-30T04:39:35.819Z,89.32
2022-11-30T04:54:39.309Z,89.16
2022-11-30T05:09:42.592Z,88.83
2022-11-30T05:24:46.029Z,88.88
2022-11-30T05:39:49.432Z,88.93
2022-11-30T05:54:53.324Z,88.47
2022-11-30T06:09:56.656Z,88.82
2022-11-30T06:24:59.774Z,89.30
2022-11-30T06:40:07.279Z,89.32
2022-11-30T06:55:11.421Z,89.60
2022-11-30T07:10:19.816Z,89.71
2022-11-30T07:25:41.710Z,89.61
2022-11-30T07:40:45.307Z,89.30
2022-11-30T07:55:52.745Z,89.14
2022-11-30T08:11:01.028Z,88.83
2022-11-30T08:26:06.782Z,88.38
2022-11-30T08:41:12.540Z,88.28
2022-11-30T08:56:19.677Z,88.22
2022-11-30T09:11:31.566Z,87.59
2022-11-30T09:26:35.181Z,87.63
2022-11-30T09:41:52.472Z,87.67
2022-11-30T09:56:55.996Z,87.48
2022-11-30T10:12:05.497Z,87.68
2022-11-30T10:27:37.552Z,88.02
2022-11-30T10:42:52.801Z,88.10
2022-11-30T10:58:04.164Z,87.92
2022-11-30T11:13:40.362Z,87.61
2022-11-30T11:28:50.389Z,88.01
2022-11-30T11:44:05.164Z,87.95
2022-11-30T11:59:28.026Z,87.78
2022-11-30T12:14:35.538Z,87.70
2022-11-30T12:29:50.648Z,87.32
2022-11-30T12:44:56.798Z,86.52
2022-11-30T13:00:17.590Z,86.80
2022-11-30T13:15:25.750Z,86.67
2022-11-30T13:30:53.971Z,86.95
2022-11-30T13:46:13.252Z,87.32
2022-11-30T14:01:27.936Z,87.27
2022-11-30T14:16:32.272Z,86.94
2022-11-30T14:31:59.079Z,88.01
2022-11-30T14:47:28.305Z,88.14
2022-11-30T15:02:37.490Z,88.29
2022-11-30T15:17:48.689Z,88.60
2022-11-30T15:32:53.240Z,88.68
2022-11-30T15:47:59.095Z,88.93
2022-11-30T16:03:13.523Z,88.33
2022-11-30T16:18:22.821Z,88.77
2022-11-30T16:33:27.555Z,88.62
2022-11-30T16:48:31.185Z,89.31
2022-11-30T17:03:36.365Z,88.98
2022-11-30T17:18:39.715Z,89.48
2022-11-30T17:33:47.895Z,89.19
2022-11-30T17:48:52.007Z,89.06
2022-11-30T18:03:57.056Z,89.08
2022-11-30T18:19:00.828Z,88.66
2022-11-30T18:34:07.354Z,88.46
2022-11-30T18:49:11.787Z,87.64
2022-11-30T19:04:15.764Z,86.86
2022-11-30T19:19:19.295Z,86.86
2022-11-30T19:34:22.509Z,86.94
2022-11-30T19:49:26.133Z,87.10
2022-11-30T20:04:29.626Z,86.79
2022-11-30T20:19:33.251Z,86.87
2022-11-30T20:34:42.383Z,86.88
2022-11-30T20:49:46.874Z,86.91
2022-11-30T21:04:50.349Z,86.93
2022-11-30T21:19:54.017Z,86.11
2022-11-30T21:34:57.747Z,86.44
2022-11-30T21:50:01.823Z,86.66
2022-11-30T22:05:05.949Z,86.67
2022-11-30T22:20:09.949Z,86.24
2022-11-30T22:35:13.172Z,86.16
2022-11-30T22:50:16.731Z,86.53
2022-11-30T23:05:20.348Z,86.30
2022-11-30T23:20:23.467Z,86.19
2022-11-30T23:35:26.830Z,85.54
2022-11-30T23:50:30.254Z,85.53
